M I D A S
Marine Information and Data Acquisition System
Tripno 595 of the Zeeleeuw from 2003-09-22 06:35:02 to 2003-09-22 13:17:30
Back to CruiseResearch ActivitiesStationsMapUnderway DataData graphs

EquipmentUnitsComment
TimeDGPSUTC
LatitudeDGPSDM.mWGS84
LongitudeDGPSDM.mWGS84
TemperatureSBE03/SBE38deg celciusITS90
ConductivitySBE21S/mITS90
SalinitySBE21 Practical Salinity Units
ChlorophylAChelsea fluorimeterg/lCalibrated in Aceton
Missing or incorrect values are displayed as -999
Sea surface data collected by the RV Zeeleeuw from 2003-09-22 06:35:02 to 2003-09-22 13:17:30
Time Latitude Longitude Temperature Conductivity Salinity ChlorophylA
2003-09-22 06:36:04 51°14.41 2°54.98 -999 0.778579 4.359108 0.027777
2003-09-22 06:37:04 51°14.58 2°54.78 -999 0.846729 4.77046 -0.005933
2003-09-22 06:38:04 51°14.76 2°54.59 -999 0.858542 4.842575 0.027777
2003-09-22 06:39:04 51°14.95 2°54.4 -999 0.828121 4.659342 0.027777
2003-09-22 06:40:04 51°15.14 2°54.21 -999 0.845265 4.763832 0.027777
2003-09-22 06:41:04 51°15.34 2°54.02 -999 0.831675 4.682575 0.027777
2003-09-22 06:42:04 51°15.53 2°53.82 -999 0.872029 4.927891 0.061486
2003-09-22 06:43:04 51°15.73 2°53.64 -999 0.839516 4.732029 0.061486
2003-09-22 06:44:04 51°15.93 2°53.45 -999 0.808784 4.5473 0.061486
2003-09-22 06:45:04 51°16.13 2°53.28 -999 0.792584 4.450605 0.027777
2003-09-22 06:46:04 51°16.33 2°53.12 -999 0.83732 4.72192 0.027777
2003-09-22 06:47:04 51°16.53 2°52.96 -999 0.888236 5.032116 0.027777
2003-09-22 06:48:02 51°16.73 2°52.8 -999 0.837425 4.724691 0.061486
2003-09-22 06:49:04 51°16.93 2°52.64 -999 0.84307 4.759992 0.027777
2003-09-22 06:50:04 51°17.14 2°52.48 -999 0.826867 4.662984 0.061486
2003-09-22 06:51:04 51°17.34 2°52.32 -999 0.751306 4.208671 0.027777
2003-09-22 06:52:04 51°17.51 2°52.09 -999 0.794883 4.471759 -0.005933
2003-09-22 06:53:04 51°17.65 2°51.8 -999 0.839516 4.742895 0.027777
2003-09-22 06:54:04 51°17.77 2°51.52 -999 0.790076 4.445106 0.027777
2003-09-22 06:55:04 51°17.9 2°51.24 -999 0.843384 4.768794 0.061486
2003-09-22 06:56:04 51°18.02 2°50.96 -999 0.851956 4.822181 0.027777
2003-09-22 06:57:04 51°18.15 2°50.68 -999 0.833139 4.709346 0.027777
2003-09-22 06:58:04 51°18.28 2°50.4 -999 0.827808 4.678458 0.027777
2003-09-22 06:59:04 51°18.41 2°50.12 -999 0.86973 4.934316 0.027777
2003-09-22 07:00:04 51°18.55 2°49.84 -999 0.833244 4.714124 -0.005933
2003-09-22 07:01:04 51°18.68 2°49.56 -999 0.811188 4.581594 0.061486
2003-09-22 07:02:04 51°18.8 2°49.28 -999 0.813697 4.59821 0.027777
2003-09-22 07:03:04 51°18.93 2°49 -999 0.852584 4.835415 0.027777
2003-09-22 07:04:04 51°19.05 2°48.72 -999 0.774505 4.363388 0.027777
2003-09-22 07:05:04 51°19.18 2°48.44 -999 0.791435 4.467032 0.027777
2003-09-22 07:06:04 51°19.31 2°48.16 -999 0.789449 4.456194 0.027777
2003-09-22 07:07:04 51°19.43 2°47.87 30.704149 0.796033 4.497379 -0.005933
2003-09-22 07:08:04 51°19.56 2°47.58 30.884294 0.845371 4.798563 0.027777
2003-09-22 07:09:04 51°19.68 2°47.29 30.379626 0.813488 4.605868 0.027777
2003-09-22 07:10:04 51°19.81 2°47 31.816714 0.761129 4.289984 0.027777
2003-09-22 07:11:04 51°19.93 2°46.72 30.427605 0.83753 4.755013 0.061486
2003-09-22 07:12:04 51°20.05 2°46.42 30.812273 0.838576 4.762715 0.061486
2003-09-22 07:13:04 51°20.14 2°46.11 30.73316 0.780566 4.411535 0.027777
2003-09-22 07:14:04 51°20.2 2°45.79 31.059943 0.782761 4.426137 0.027777
2003-09-22 07:15:04 51°20.26 2°45.46 31.241785 0.779312 4.406534 0.027777
2003-09-22 07:16:04 51°20.31 2°45.12 31.029176 0.81861 4.64642 0.027777
2003-09-22 07:17:04 51°20.34 2°44.77 29.807406 0.819551 4.653453 -0.005933
2003-09-22 07:18:04 51°20.38 2°44.42 30.939206 0.801051 4.542143 0.027777
2003-09-22 07:19:04 51°20.41 2°44.06 30.524909 0.842026 4.793212 0.027777
2003-09-22 07:20:04 51°20.44 2°43.7 32.688705 0.792167 4.490666 0.061486
2003-09-22 07:21:04 51°20.48 2°43.35 31.8816 0.812025 4.612802 0.027777
2003-09-22 07:22:04 51°20.51 2°42.99 30.758702 0.786941 4.461284 -0.005933
2003-09-22 07:23:04 51°20.54 2°42.64 30.373341 0.808576 4.594232 0.027777
2003-09-22 07:24:04 51°20.57 2°42.3 29.984428 0.837008 4.769045 0.027777
2003-09-22 07:25:04 51°20.6 2°41.95 30.971855 0.806277 4.582524 0.061486
2003-09-22 07:26:04 51°20.64 2°41.61 30.27085 0.830109 4.729252 0.027777
2003-09-22 07:27:04 51°20.67 2°41.26 29.355556 0.779103 4.419346 0.027777
2003-09-22 07:28:04 51°20.71 2°40.92 30.924183 0.833977 4.755085 0.027777
2003-09-22 07:29:04 51°20.74 2°40.57 29.383736 0.810876 4.615074 -0.005933
2003-09-22 07:30:02 51°20.77 2°40.24 29.282531 0.764578 4.334043 0.027777
2003-09-22 07:31:04 51°20.79 2°39.88 28.619548 0.774714 4.396373 0.027777
2003-09-22 07:32:02 51°20.82 2°39.54 29.307819 0.757786 4.294323 -0.005933
2003-09-22 07:33:04 51°20.85 2°39.18 29.610535 0.767399 4.353508 0.027777
2003-09-22 07:34:04 51°20.88 2°38.84 30.866783 0.784747 4.459881 0.061486
2003-09-22 07:35:04 51°20.91 2°38.5 29.697416 0.763324 4.330275 0.027777
2003-09-22 07:36:04 51°20.94 2°38.16 30.141705 0.736052 4.165354 -0.005933
2003-09-22 07:37:04 51°20.96 2°37.81 30.190011 0.814534 4.644089 0.027777
2003-09-22 07:38:04 51°20.99 2°37.47 30.203138 0.772938 4.390904 -0.005933
2003-09-22 07:39:04 51°21.02 2°37.13 31.188063 0.794049 4.520273 0.027777
2003-09-22 07:40:04 51°21.05 2°36.78 30.287408 0.77994 4.435004 0.027777
2003-09-22 07:41:04 51°21.08 2°36.44 30.04553 0.772729 4.391783 0.027777
2003-09-22 07:42:04 51°21.11 2°36.1 29.301409 0.800529 4.56208 -0.039642
2003-09-22 07:43:04 51°21.15 2°35.75 29.957672 0.754965 4.28507 0.027777
2003-09-22 07:44:04 51°21.18 2°35.41 29.677432 0.803769 4.58352 -0.005933
2003-09-22 07:45:04 51°21.21 2°35.07 29.862713 0.79802 4.549049 -0.005933
2003-09-22 07:46:04 51°21.24 2°34.72 30.400408 0.752979 4.275093 0.027777
2003-09-22 07:47:04 51°21.27 2°34.38 30.35933 0.784225 4.466305 -0.005933
2003-09-22 07:48:04 51°21.31 2°34.04 29.310596 0.781403 4.449872 0.027777
2003-09-22 07:49:04 51°21.37 2°33.71 30.397705 0.815998 4.662109 0.027777
2003-09-22 07:50:04 51°21.52 2°33.46 30.049691 0.821642 4.697695 -0.005933
2003-09-22 07:51:04 51°21.72 2°33.29 29.770713 0.7767 4.42334 0.027777
2003-09-22 07:52:04 51°21.92 2°33.14 30.298199 0.78203 4.456485 -0.005933
2003-09-22 07:53:04 51°22.14 2°33.05 29.105783 0.803142 4.586368 0.027777
2003-09-22 07:54:04 51°22.37 2°33.01 29.261975 0.779836 4.4446 -0.005933
2003-09-22 07:55:04 51°22.59 2°32.94 31.159884 0.768131 4.373785 -0.039642
2003-09-22 07:56:04 51°22.81 2°32.84 30.505809 0.80032 4.571061 -0.005933
2003-09-22 07:57:04 51°23.02 2°32.74 30.188497 0.809936 4.630822 0.027777
2003-09-22 07:58:04 51°23.15 2°32.47 30.237125 0.724665 4.110705 -0.005933
2003-09-22 07:59:04 51°23.21 2°32.15 31.333861 0.780672 4.452561 -0.005933
2003-09-22 08:00:04 51°23.21 2°31.81 29.209578 0.801261 4.579211 -0.005933
2003-09-22 08:01:04 51°23.18 2°31.48 30.775259 0.750681 4.270636 -0.005933
2003-09-22 08:02:04 51°23.15 2°31.15 31.026286 0.805023 4.603377 -0.005933
2003-09-22 08:03:04 51°23.12 2°30.81 30.432307 0.813699 4.657237 -0.005933
2003-09-22 08:04:04 51°23.09 2°30.48 29.521815 0.797498 4.558533 -0.005933
2003-09-22 08:05:04 51°23.06 2°30.15 30.433675 0.755487 4.302251 -0.005933
2003-09-22 08:06:04 51°23.02 2°29.81 30.310781 0.759145 4.325347 -0.005933
2003-09-22 08:07:04 51°22.98 2°29.48 30.498238 0.810563 4.641034 0.027777
2003-09-22 08:08:04 51°22.91 2°29.16 29.624969 0.772625 4.40923 -0.005933
2003-09-22 08:09:04 51°22.91 2°28.83 30.641266 0.796557 4.556711 -0.005933
2003-09-22 08:10:04 51°22.89 2°28.49 31.192752 0.813281 4.660233 -0.005933
2003-09-22 08:11:04 51°22.87 2°28.15 30.667852 0.811295 4.648791 0.027777
2003-09-22 08:12:04 51°22.85 2°27.81 31.779494 0.797498 4.564869 -0.005933
2003-09-22 08:13:04 51°22.83 2°27.47 29.802418 0.786315 4.49707 -0.005933
2003-09-22 08:14:04 51°22.8 2°27.13 29.526715 0.795303 4.55303 -0.005933
2003-09-22 08:15:04 51°22.78 2°26.79 29.777614 0.77158 4.408236 -0.005933
2003-09-22 08:16:04 51°22.75 2°26.45 30.341909 0.802829 4.600626 0.027777
2003-09-22 08:17:04 51°22.8 2°26.12 31.121891 0.745143 4.247849 0.027777
2003-09-22 08:18:04 51°22.99 2°25.94 31.48004 0.764265 4.365612 -0.005933
2003-09-22 08:19:04 51°23.21 2°25.86 31.146087 0.9011 5.210063 0.027777
2003-09-22 08:20:04 51°23.45 2°25.83 31.599202 0.756324 4.317467 0.027777
2003-09-22 08:21:04 51°23.69 2°25.79 31.17969 0.817148 4.690953 0.027777
2003-09-22 08:22:04 51°23.92 2°25.75 30.337554 0.726023 4.132629 -0.005933
2003-09-22 08:23:04 51°24.16 2°25.76 30.694535 0.828124 4.758732 0.027777
2003-09-22 08:24:04 51°24.4 2°25.77 29.271167 0.759667 4.338185 -0.005933
2003-09-22 08:25:04 51°24.64 2°25.81 30.582147 0.771267 4.409547 0.027777
2003-09-22 08:26:02 51°24.86 2°25.86 31.665998 0.78966 4.522451 -0.005933
2003-09-22 08:27:04 51°25.11 2°25.91 31.45737 0.851436 4.903395 -0.005933
2003-09-22 08:28:04 51°25.34 2°25.99 31.482705 0.74786 4.266869 -0.005933
2003-09-22 08:29:04 51°25.58 2°26.05 31.803723 0.77576 4.43789 0.027777
2003-09-22 08:30:04 51°25.81 2°26.13 32.18529 0.762071 4.354264 0.027777
2003-09-22 08:31:04 51°26.05 2°26.19 31.222724 0.787779 4.512115 0.027777
2003-09-22 08:32:04 51°26.28 2°26.25 31.056045 0.737621 4.205258 0.027777
2003-09-22 08:33:04 51°26.52 2°26.32 30.013574 0.815998 4.686328 0.027777
2003-09-22 08:34:04 51°26.75 2°26.4 31.547735 0.764997 4.3731 -0.005933
2003-09-22 08:35:04 51°26.98 2°26.47 31.101236 0.79938 4.584507 0.027777
2003-09-22 08:36:04 51°27.22 2°26.53 31.370155 0.787047 4.508973 0.027777
2003-09-22 08:37:02 51°27.44 2°26.6 32.255793 0.724561 4.126677 0.027777
2003-09-22 08:38:04 51°27.69 2°26.67 32.519717 0.779209 4.461381 0.027777
2003-09-22 08:39:04 51°27.92 2°26.74 31.568858 0.750368 4.285086 0.027777
2003-09-22 08:40:04 51°28.15 2°26.8 31.059629 0.786107 4.504208 0.061486
2003-09-22 08:41:04 51°28.39 2°26.87 29.911691 0.819552 4.710417 0.027777
2003-09-22 08:42:04 51°28.62 2°26.94 31.972637 0.79499 4.559289 0.027777
2003-09-22 08:43:04 51°28.75 2°26.94 31.214216 0.784852 4.497447 0.061486
2003-09-22 08:44:04 51°28.78 2°26.96 31.169788 0.751099 4.290333 0.061486
2003-09-22 08:45:02 51°28.78 2°27.01 31.188723 0.879351 5.081257 0.027777
2003-09-22 08:46:04 51°28.79 2°27.05 30.119443 0.72968 4.159966 0.027777
2003-09-22 08:47:04 51°28.81 2°27.09 29.907169 0.817671 4.700154 0.061486
2003-09-22 08:48:04 51°28.83 2°27.12 29.184793 0.762594 4.361709 0.027777
2003-09-22 08:49:04 51°28.94 2°27.08 32.241129 0.848613 4.891882 0.061486
2003-09-22 08:50:04 51°29.16 2°27.07 30.84393 0.714218 4.066679 0.061486
2003-09-22 08:51:04 51°29.4 2°27.12 31.146191 0.812549 4.670048 0.027777
2003-09-22 08:52:04 51°29.64 2°27.18 31.457404 0.747651 4.271666 0.027777
2003-09-22 08:53:04 51°29.88 2°27.25 31.763738 0.753398 4.307245 0.027777
2003-09-22 08:54:04 51°30.12 2°27.3 30.019748 0.760922 4.35368 0.027777
2003-09-22 08:55:04 51°30.35 2°27.36 31.590079 0.811086 4.662495 0.027777
2003-09-22 08:56:04 51°30.58 2°27.41 30.607599 0.786107 4.509073 0.061486
2003-09-22 08:57:04 51°30.81 2°27.47 31.207757 0.821016 4.7244 0.061486
2003-09-22 08:58:04 51°31.04 2°27.53 31.294879 0.80032 4.596906 0.095195
2003-09-22 08:59:02 51°31.27 2°27.57 30.892524 0.772521 4.426246 0.061486
2003-09-22 09:00:04 51°31.52 2°27.64 29.597269 0.714323 4.070489 0.027777
2003-09-22 09:01:04 51°31.75 2°27.7 30.57763 0.704503 4.010734 0.027777
2003-09-22 09:02:04 51°31.98 2°27.79 31.503258 0.820493 4.722662 0.061486
2003-09-22 09:03:04 51°32.21 2°27.94 30.981191 0.808578 4.649331 0.061486
2003-09-22 09:04:04 51°32.44 2°28.07 30.476431 0.824465 4.747626 0.027777
2003-09-22 09:05:02 51°32.66 2°28.2 30.92725 0.821748 4.731333 0.061486
2003-09-22 09:06:04 51°32.9 2°28.34 30.794502 0.882697 5.10908 0.027777
2003-09-22 09:07:04 51°33.12 2°28.48 31.222898 0.789765 4.534229 0.027777
2003-09-22 09:08:04 51°33.35 2°28.62 30.849374 0.792795 4.553301 0.061486
2003-09-22 09:09:04 51°33.59 2°28.76 30.897476 0.739084 4.223616 0.061486
2003-09-22 09:10:04 51°33.81 2°28.89 31.829737 0.788824 4.529391 0.061486
2003-09-22 09:11:04 51°34.04 2°29.03 32.792371 0.730621 4.172461 0.061486
2003-09-22 09:12:04 51°34.27 2°29.18 31.569342 0.860218 4.970974 0.095195
2003-09-22 09:13:04 51°34.5 2°29.32 31.291826 0.76761 4.399456 0.061486
2003-09-22 09:14:04 51°34.73 2°29.45 32.501039 0.767714 4.400362 0.061486
2003-09-22 09:15:04 51°34.95 2°29.59 33.274858 0.773566 4.436593 0.061486
2003-09-22 09:16:04 51°35.18 2°29.72 33.094607 0.817149 4.704977 0.061486
2003-09-22 09:17:04 51°35.41 2°29.86 31.938485 0.900578 5.223019 0.095195
2003-09-22 09:18:04 51°35.64 2°30 31.703066 0.748696 4.28436 0.061486
2003-09-22 09:19:04 51°35.86 2°30.15 30.317984 0.793945 4.562644 0.027777
2003-09-22 09:20:04 51°36.08 2°30.3 31.885834 0.80262 4.616478 0.095195
2003-09-22 09:21:04 51°36.31 2°30.46 31.773668 0.80053 4.603584 0.061486
2003-09-22 09:22:04 51°36.53 2°30.61 31.882323 0.799589 4.597852 0.061486
2003-09-22 09:23:02 51°36.75 2°30.75 31.626321 0.762907 4.372415 0.061486
2003-09-22 09:24:04 51°36.98 2°30.91 32.632133 0.763116 4.373831 0.061486
2003-09-22 09:25:04 51°37.2 2°31.07 30.324414 0.759145 4.349641 0.027777
2003-09-22 09:26:04 51°37.42 2°31.24 32.212409 0.781927 4.489839 0.061486
2003-09-22 09:27:02 51°37.63 2°31.4 31.393336 0.781195 4.48547 0.061486
2003-09-22 09:28:04 51°37.85 2°31.59 32.723208 0.793109 4.559068 0.061486
2003-09-22 09:29:04 51°38.07 2°31.76 31.142889 0.722054 4.122935 0.027777
2003-09-22 09:30:02 51°38.29 2°31.91 32.741662 0.805756 4.637499 0.061486
2003-09-22 09:31:02 51°38.51 2°32.1 31.818678 0.790392 4.542866 0.061486
2003-09-22 09:32:02 51°38.73 2°32.3 32.390587 0.830424 4.790211 0.061486
2003-09-22 09:33:04 51°38.95 2°32.49 31.683395 0.758205 4.345303 0.061486
2003-09-22 09:34:02 51°39.16 2°32.68 31.755256 0.802934 4.620705 0.061486
2003-09-22 09:35:04 51°39.37 2°32.89 31.542791 0.807428 4.648523 0.061486
2003-09-22 09:36:04 51°39.58 2°33.1 31.858049 0.795408 4.574619 0.027777
2003-09-22 09:37:04 51°39.79 2°33.31 30.455529 0.777955 4.467075 0.027777
2003-09-22 09:38:04 51°40 2°33.51 32.009764 0.791019 4.547757 0.027777
2003-09-22 09:39:04 51°40.2 2°33.72 30.305017 0.789869 4.540806 0.095195
2003-09-22 09:40:04 51°40.41 2°33.93 31.212688 0.748069 4.283928 0.061486
2003-09-22 09:41:04 51°40.61 2°34.15 31.839107 0.74786 4.28271 0.061486
2003-09-22 09:42:02 51°40.81 2°34.36 31.007137 0.834501 4.816903 0.061486
2003-09-22 09:43:04 51°41.03 2°34.59 30.21387 0.826347 4.766629 0.061486
2003-09-22 09:44:04 51°41.22 2°34.83 30.66348 0.787152 4.524739 0.061486
2003-09-22 09:45:04 51°41.42 2°35.08 30.324414 0.802516 4.619584 0.061486
2003-09-22 09:46:04 51°41.62 2°35.32 32.077646 0.83011 4.790287 0.061486
2003-09-22 09:47:04 51°41.82 2°35.57 31.507824 0.82342 4.749016 0.061486
2003-09-22 09:48:04 51°42.01 2°35.83 30.702226 0.79081 4.547563 0.061486
2003-09-22 09:49:02 51°42.19 2°36.07 31.943886 0.857709 4.961674 0.061486
2003-09-22 09:50:02 51°42.34 2°36.37 30.960706 0.841923 4.863779 0.027777
2003-09-22 09:51:04 51°42.44 2°36.75 31.77384 0.775865 4.455685 0.061486
2003-09-22 09:52:04 51°42.49 2°37.13 31.597958 0.799485 4.601219 0.061486
2003-09-22 09:53:04 51°42.47 2°37.5 30.042321 0.894931 5.193231 0.061486
2003-09-22 09:54:04 51°42.37 2°37.83 30.459493 0.877992 5.08817 0.061486
2003-09-22 09:55:04 51°42.24 2°38.14 31.94791 0.822689 4.744488 0.027777
2003-09-22 09:56:04 51°42.12 2°38.44 32.111737 0.832096 4.802444 0.061486
2003-09-22 09:57:04 51°42 2°38.75 31.616338 0.961342 5.608053 0.061486
2003-09-22 09:58:04 51°41.89 2°39.07 31.219078 0.935717 5.447704 0.061486
2003-09-22 09:59:04 51°41.77 2°39.39 32.515825 0.784539 4.508773 0.061486
2003-09-22 10:00:04 51°41.66 2°39.71 32.123715 0.792691 4.559302 0.061486
2003-09-22 10:01:04 51°41.55 2°40.02 32.426727 0.795827 4.578162 0.061486
2003-09-22 10:02:04 51°41.44 2°40.35 31.15488 0.866178 5.014069 0.027777
2003-09-22 10:03:04 51°41.33 2°40.66 31.109339 0.834187 4.814888 0.095195
2003-09-22 10:04:04 51°41.22 2°40.99 31.143202 0.971802 5.67432 0.027777
2003-09-22 10:05:04 51°41.11 2°41.31 31.9922 0.922121 5.363544 0.061486
2003-09-22 10:06:04 51°40.99 2°41.63 31.980889 0.780464 4.484203 0.027777
2003-09-22 10:07:04 51°40.86 2°41.92 31.913334 0.837637 4.83728 0.095195
2003-09-22 10:08:04 51°40.72 2°42.21 31.719627 0.795513 4.577261 0.061486
2003-09-22 10:09:04 51°40.59 2°42.5 31.679737 0.779209 4.476546 0.027777
2003-09-22 10:10:04 51°40.46 2°42.79 31.096054 0.960087 5.601275 0.061486
2003-09-22 10:11:04 51°40.32 2°43.08 32.327874 0.846209 4.891689 0.061486
2003-09-22 10:12:04 51°40.19 2°43.37 32.053881 0.813699 4.688818 0.095195
2003-09-22 10:13:04 51°40.05 2°43.66 30.783816 0.776179 4.457481 0.061486
2003-09-22 10:14:04 51°39.92 2°43.95 31.44868 0.76437 4.385555 0.095195
2003-09-22 10:15:04 51°39.79 2°44.24 31.901943 0.896709 5.20408 0.061486
2003-09-22 10:16:04 51°39.66 2°44.53 31.174444 0.819971 4.728669 0.061486
2003-09-22 10:17:04 51°39.52 2°44.8 31.435419 0.830842 4.795324 0.061486
2003-09-22 10:18:04 51°39.33 2°44.95 30.8897 0.993562 5.811404 0.061486
2003-09-22 10:19:04 51°39.13 2°45.06 30.043661 0.768237 4.40854 0.027777
2003-09-22 10:20:04 51°38.93 2°45.11 30.629963 0.796976 4.583462 0.027777
2003-09-22 10:21:04 51°38.74 2°45.02 30.474327 0.894304 5.189476 0.095195
2003-09-22 10:22:04 51°38.56 2°44.87 30.972517 0.783494 4.503892 0.095195
2003-09-22 10:23:04 51°38.39 2°44.72 30.756326 0.765833 4.395346 0.027777
2003-09-22 10:24:04 51°38.21 2°44.58 31.448646 0.728845 4.168422 0.061486
2003-09-22 10:25:04 51°38.05 2°44.4 30.914945 0.848509 4.906997 0.061486
2003-09-22 10:26:04 51°37.95 2°44.13 32.004402 0.843491 4.875999 0.061486
2003-09-22 10:27:04 51°38.02 2°43.83 30.856631 0.814745 4.69825 0.027777
2003-09-22 10:28:04 51°38.15 2°43.53 31.574112 0.644865 3.65731 0.027777
2003-09-22 10:29:04 51°38.28 2°43.24 31.384189 0.829379 4.789073 0.061486
2003-09-22 10:30:04 51°38.4 2°42.96 30.908634 0.749532 4.296005 0.061486
2003-09-22 10:31:04 51°38.53 2°42.67 30.370778 0.765206 4.392481 0.061486
2003-09-22 10:32:04 51°38.66 2°42.38 32.029901 0.728427 4.166552 0.061486
2003-09-22 10:33:04 51°38.78 2°42.1 31.723043 0.578044 3.2538 0.061486
2003-09-22 10:34:04 51°38.91 2°41.82 30.792162 0.804815 4.636434 0.061486
2003-09-22 10:35:04 51°39.04 2°41.54 31.025555 0.711816 4.064343 0.095195
2003-09-22 10:36:04 51°39.17 2°41.27 31.289814 0.787048 4.526819 0.027777
2003-09-22 10:37:04 51°39.3 2°40.99 31.01344 0.830006 4.792165 0.061486
2003-09-22 10:38:04 51°39.43 2°40.71 32.149963 0.774298 4.44811 0.061486
2003-09-22 10:39:04 51°39.5 2°40.4 31.875816 0.734487 4.203877 0.061486
2003-09-22 10:40:04 51°39.39 2°40.16 30.808572 0.727278 4.159387 0.061486
2003-09-22 10:41:04 51°39.21 2°40.05 31.351161 0.89399 5.189631 0.095195
2003-09-22 10:42:04 51°39.03 2°39.96 32.118086 0.836487 4.830444 0.061486
2003-09-22 10:43:04 51°38.85 2°39.87 31.907036 0.850809 4.920092 0.061486
2003-09-22 10:44:04 51°38.67 2°39.77 32.086951 0.774925 4.45043 0.095195
2003-09-22 10:45:04 51°38.48 2°39.68 33.242427 0.74086 4.241114 0.095195
2003-09-22 10:46:04 51°38.3 2°39.59 32.133597 0.739606 4.232407 0.095195
2003-09-22 10:47:04 51°38.12 2°39.49 32.649211 0.948372 5.527386 0.095195
2003-09-22 10:48:04 51°37.93 2°39.39 33.100673 0.760504 4.360539 0.095195
2003-09-22 10:49:04 51°37.75 2°39.31 32.689625 0.884057 5.126085 0.061486
2003-09-22 10:50:04 51°37.56 2°39.22 32.425872 0.748278 4.286822 0.095195
2003-09-22 10:51:04 51°37.37 2°39.14 32.656369 0.647058 3.670056 0.095195
2003-09-22 10:52:04 51°37.18 2°39.06 32.106863 0.737725 4.221832 0.027777
2003-09-22 10:53:04 51°37 2°38.97 32.257575 0.747025 4.27919 0.061486
2003-09-22 10:54:04 51°36.81 2°38.88 33.324983 0.753921 4.322378 0.061486
2003-09-22 10:55:04 51°36.62 2°38.8 32.362607 0.758205 4.34661 0.095195
2003-09-22 10:56:04 51°36.43 2°38.71 31.811339 0.885521 5.136132 0.061486
2003-09-22 10:57:04 51°36.24 2°38.63 32.268947 0.767819 4.407694 0.061486
2003-09-22 10:58:04 51°36.05 2°38.6 33.142749 0.869419 5.034978 0.061486
2003-09-22 10:59:04 51°35.85 2°38.62 32.173596 0.593076 3.343049 0.061486
2003-09-22 11:00:04 51°35.65 2°38.67 31.393925 0.892317 5.175298 0.027777
2003-09-22 11:01:04 51°35.46 2°38.73 32.140185 0.841923 4.861071 0.061486
2003-09-22 11:02:04 51°35.26 2°38.81 32.822134 0.932893 5.429539 0.095195
2003-09-22 11:03:04 51°35.07 2°38.92 31.286761 0.73083 4.178634 0.061486
2003-09-22 11:04:04 51°34.88 2°39.04 32.114688 0.892108 5.176801 0.061486
2003-09-22 11:05:04 51°34.7 2°39.21 32.375367 0.721009 4.118652 0.061486
2003-09-22 11:06:04 51°34.52 2°39.38 32.30398 0.793318 4.561797 0.061486
2003-09-22 11:07:04 51°34.33 2°39.54 30.152974 1.277877 7.620444 0.061486
2003-09-22 11:08:04 51°34.15 2°39.7 31.849336 0.755802 4.330219 0.095195
2003-09-22 11:09:04 51°33.96 2°39.87 32.330749 0.736994 4.215446 0.061486
2003-09-22 11:10:04 51°33.77 2°40.03 32.538493 1.184044 7.020605 0.027777
2003-09-22 11:11:04 51°33.58 2°40.18 32.805706 0.87862 5.090082 0.061486
2003-09-22 11:12:04 51°33.4 2°40.34 33.162153 0.883534 5.120053 0.061486
2003-09-22 11:13:04 51°33.22 2°40.5 33.542851 1.008627 5.903277 0.061486
2003-09-22 11:14:04 51°33.03 2°40.66 33.665132 0.879665 5.095362 0.095195
2003-09-22 11:15:04 51°32.85 2°40.82 32.483757 0.849241 4.908066 0.128905
2003-09-22 11:16:04 51°32.66 2°40.97 32.113041 0.905598 5.259212 0.061486
2003-09-22 11:17:04 51°32.48 2°41.13 32.443851 0.931324 5.420459 0.095195
2003-09-22 11:18:04 51°32.29 2°41.23 30.773408 1.013439 5.930924 0.061486
2003-09-22 11:19:04 51°32.12 2°41.11 33.420107 0.76019 4.358809 0.095195
2003-09-22 11:20:04 51°31.99 2°40.88 32.426453 0.910513 5.291168 0.128905
2003-09-22 11:21:04 51°31.87 2°40.65 32.684345 0.716517 4.092042 0.095195
2003-09-22 11:22:04 51°31.75 2°40.41 33.326503 0.788824 4.536138 0.095195
2003-09-22 11:23:04 51°31.62 2°40.18 32.340093 0.801575 4.615027 0.128905
2003-09-22 11:24:04 51°31.47 2°39.98 32.154045 0.644342 3.652991 0.095195
2003-09-22 11:25:02 51°31.32 2°39.79 32.723821 0.8552 4.947209 0.095195
2003-09-22 11:26:04 51°31.16 2°39.59 33.450036 0.843909 4.877051 0.128905
2003-09-22 11:27:04 51°31.01 2°39.39 33.487607 0.720278 4.115293 0.095195
2003-09-22 11:28:04 51°30.85 2°39.2 33.270361 0.873287 5.059729 0.095195
2003-09-22 11:29:04 51°30.68 2°39.03 33.664627 0.799485 4.601912 0.095195
2003-09-22 11:30:04 51°30.52 2°38.87 34.606701 0.731457 4.181781 0.061486
2003-09-22 11:31:04 51°30.35 2°38.7 34.227733 0.721427 4.121704 0.095195
2003-09-22 11:32:04 51°30.18 2°38.54 32.469307 1.090562 6.42449 0.061486
2003-09-22 11:33:02 51°30.02 2°38.38 33.436743 0.778582 4.471608 0.095195
2003-09-22 11:34:04 51°29.84 2°38.22 34.053996 0.987285 5.771644 0.128905
2003-09-22 11:35:04 51°29.66 2°38.13 32.460322 0.630976 3.570178 0.095195
2003-09-22 11:36:04 51°29.46 2°38.11 33.368389 0.815267 4.694202 0.095195
2003-09-22 11:37:04 51°29.27 2°38.14 34.441532 0.666274 3.781546 0.128905
2003-09-22 11:38:04 51°29.11 2°38.36 31.83046 0.922539 5.364301 0.095195
2003-09-22 11:39:04 51°28.95 2°38.61 32.992737 0.893572 5.183351 0.095195
2003-09-22 11:40:04 51°28.8 2°38.84 34.275046 0.80471 4.629237 0.095195
2003-09-22 11:41:04 51°28.63 2°39.07 33.88856 0.760399 4.356882 0.061486
2003-09-22 11:42:04 51°28.47 2°39.3 34.44443 0.943247 5.493286 0.095195
2003-09-22 11:43:04 51°28.31 2°39.53 34.378554 1.045039 6.13306 0.128905
2003-09-22 11:44:04 51°28.15 2°39.77 34.462181 0.766983 4.399438 0.095195
2003-09-22 11:45:04 51°27.97 2°39.93 34.098035 0.990318 5.787069 0.095195
2003-09-22 11:46:04 51°27.78 2°40.09 33.236913 1.043469 6.123047 0.061486
2003-09-22 11:47:04 51°27.6 2°40.25 33.75376 0.834605 4.815883 0.061486
2003-09-22 11:48:04 51°27.41 2°40.41 34.501198 0.934357 5.437637 0.095195
2003-09-22 11:49:04 51°27.22 2°40.58 34.130781 0.943456 5.494927 0.095195
2003-09-22 11:50:04 51°27.04 2°40.74 33.145797 0.84025 4.852458 0.061486
2003-09-22 11:51:04 51°26.85 2°40.91 33.430703 0.864818 5.004792 0.061486
2003-09-22 11:52:04 51°26.67 2°41.07 33.335456 0.968455 5.650572 0.027777
2003-09-22 11:53:04 51°26.48 2°41.23 33.424933 0.808891 4.657631 0.095195
2003-09-22 11:54:04 51°26.29 2°41.39 31.97917 0.88803 5.148435 0.128905
2003-09-22 11:55:04 51°26.1 2°41.54 32.633769 0.875483 5.068355 0.095195
2003-09-22 11:56:04 51°25.91 2°41.7 33.364641 0.904029 5.245001 0.061486
2003-09-22 11:57:04 51°25.72 2°41.86 34.403385 0.741173 4.240294 0.095195
2003-09-22 11:58:04 51°25.53 2°42.01 34.101012 0.898173 5.211561 0.095195
2003-09-22 11:59:04 51°25.34 2°42.16 33.94047 0.722576 4.127308 0.095195
2003-09-22 12:00:04 51°25.15 2°42.32 33.563469 0.91846 5.33568 0.095195
2003-09-22 12:01:04 51°24.96 2°42.47 34.55859 0.956426 5.572177 0.061486
2003-09-22 12:02:04 51°24.77 2°42.63 33.218543 0.91229 5.297404 0.095195
2003-09-22 12:03:04 51°24.58 2°42.78 34.022289 0.763534 4.377517 0.095195
2003-09-22 12:04:04 51°24.39 2°42.94 34.328101 0.863459 4.993565 0.061486
2003-09-22 12:05:04 51°24.2 2°43.09 33.897214 0.830842 4.793016 0.128905
2003-09-22 12:06:04 51°24 2°43.24 34.566439 0.826765 4.767567 0.061486
2003-09-22 12:07:04 51°23.81 2°43.4 33.996902 0.860114 4.973915 0.128905
2003-09-22 12:08:04 51°23.62 2°43.56 33.504498 0.841296 4.8566 0.061486
2003-09-22 12:09:04 51°23.42 2°43.71 33.793032 0.829901 4.786615 0.095195
2003-09-22 12:10:04 51°23.23 2°43.87 33.079457 0.815894 4.700267 0.095195
2003-09-22 12:11:04 51°23.03 2°44.02 33.856786 0.875483 5.069041 0.061486
2003-09-22 12:12:02 51°22.84 2°44.17 33.615933 0.970443 5.662707 0.061486
2003-09-22 12:13:04 51°22.64 2°44.33 33.590951 0.816103 4.701559 0.061486
2003-09-22 12:14:04 51°22.44 2°44.48 33.739141 0.826243 4.764405 0.061486
2003-09-22 12:15:04 51°22.24 2°44.63 33.577346 0.903506 5.244345 0.061486
2003-09-22 12:16:04 51°22.05 2°44.78 33.723444 1.045562 6.135443 0.061486
2003-09-22 12:17:04 51°21.85 2°44.93 33.231602 0.819971 4.724757 0.061486
2003-09-22 12:18:04 51°21.66 2°45.08 33.143325 0.827497 4.771449 0.095195
2003-09-22 12:19:04 51°21.46 2°45.24 33.261265 0.923689 5.369955 0.061486
2003-09-22 12:20:04 51°21.27 2°45.39 32.508962 1.05048 6.167092 0.027777
2003-09-22 12:21:04 51°21.07 2°45.54 33.70724 0.803561 4.623742 0.095195
2003-09-22 12:22:04 51°20.88 2°45.69 32.913597 0.811504 4.672578 0.095195
2003-09-22 12:23:04 51°20.68 2°45.84 33.279625 0.780359 4.480458 0.095195
2003-09-22 12:24:04 51°20.49 2°45.99 32.869086 0.762176 4.368711 0.095195
2003-09-22 12:25:02 51°20.31 2°46.17 34.122019 0.843909 4.873089 0.061486
2003-09-22 12:26:04 51°20.14 2°46.42 33.666377 0.852377 4.925007 0.095195
2003-09-22 12:27:04 51°19.99 2°46.69 34.668434 0.936762 5.450474 0.061486
2003-09-22 12:28:04 51°19.85 2°46.97 32.833458 0.919715 5.343758 0.095195
2003-09-22 12:29:04 51°19.7 2°47.24 34.462414 0.819553 4.721391 0.061486
2003-09-22 12:30:04 51°19.56 2°47.53 34.271808 0.765833 4.390589 0.061486
2003-09-22 12:31:04 51°19.43 2°47.81 34.315558 0.875901 5.071108 0.061486
2003-09-22 12:32:04 51°19.29 2°48.1 35.144183 0.813072 4.681419 0.095195
2003-09-22 12:33:04 51°19.15 2°48.38 34.187276 0.830633 4.790064 0.095195
2003-09-22 12:34:04 51°19.01 2°48.66 33.662138 0.716935 4.090968 0.095195
2003-09-22 12:35:04 51°18.87 2°48.94 33.87202 0.885102 5.127965 0.095195
2003-09-22 12:36:04 51°18.74 2°49.23 34.206889 0.925572 5.380101 0.061486
2003-09-22 12:37:04 51°18.62 2°49.53 33.933396 0.76552 4.388333 0.061486
2003-09-22 12:38:04 51°18.51 2°49.84 33.500688 0.884475 5.123906 0.061486
2003-09-22 12:39:04 51°18.39 2°50.14 32.506845 0.813699 4.684659 0.061486
2003-09-22 12:40:04 51°18.27 2°50.45 33.713998 0.89284 5.175673 0.095195
2003-09-22 12:41:04 51°18.15 2°50.74 34.153852 0.84025 4.84881 0.095195
2003-09-22 12:42:04 51°18.01 2°51.01 34.299743 0.770431 4.417787 0.061486
2003-09-22 12:43:04 51°17.88 2°51.3 33.943487 0.782449 4.491638 0.095195
2003-09-22 12:44:04 51°17.74 2°51.58 34.103455 0.809205 4.656836 0.095195
2003-09-22 12:45:04 51°17.6 2°51.86 34.853307 0.847673 4.894139 0.095195
2003-09-22 12:46:04 51°17.46 2°52.13 34.08512 0.785584 4.510599 0.095195
2003-09-22 12:47:04 51°17.29 2°52.34 34.182731 0.872137 5.04543 0.027777
2003-09-22 12:48:04 51°17.1 2°52.52 33.668092 0.868687 5.023619 0.027777
2003-09-22 12:49:04 51°16.91 2°52.7 34.84731 0.769177 4.408887 0.095195
2003-09-22 12:50:04 51°16.72 2°52.88 34.991322 0.854782 4.936658 0.095195
2003-09-22 12:51:04 51°16.53 2°53.05 34.554034 0.818925 4.715034 0.095195
2003-09-22 12:52:04 51°16.34 2°53.21 34.703963 0.812027 4.671241 0.061486
2003-09-22 12:53:04 51°16.14 2°53.37 34.152147 0.708786 4.038295 0.095195
2003-09-22 12:54:04 51°15.95 2°53.54 33.838427 0.85635 4.945936 0.061486
2003-09-22 12:55:04 51°15.76 2°53.71 33.656688 0.998374 5.832388 0.027777
2003-09-22 12:56:04 51°15.56 2°53.87 34.790792 0.840459 4.845879 0.061486
2003-09-22 12:57:04 51°15.37 2°54.04 34.528419 0.933206 5.422928 0.061486
2003-09-22 12:58:04 51°15.18 2°54.2 35.092304 0.935089 5.434364 0.061486
2003-09-22 12:59:04 51°15 2°54.35 34.730914 0.974313 5.679909 0.061486
2003-09-22 13:00:04 51°14.82 2°54.51 35.304555 0.824152 4.744904 0.061486
2003-09-22 13:01:04 51°14.65 2°54.7 33.060202 0.904238 5.241338 0.027777
2003-09-22 13:02:04 51°14.48 2°54.89 34.917495 0.863145 4.986218 0.061486
2003-09-22 13:03:04 51°14.34 2°55.12 34.070798 0.83356 4.802476 0.095195
2003-09-22 13:04:04 51°14.24 2°55.3 34.87673 0.834605 4.809229 0.095195
2003-09-22 13:05:04 51°14.14 2°55.4 32.875883 0.843073 4.86169 0.061486
2003-09-22 13:06:04 51°14.05 2°55.47 34.592773 0.832933 4.798742 0.095195
2003-09-22 13:07:04 51°13.95 2°55.54 34.574254 0.838577 4.833437 0.095195
2003-09-22 13:08:04 51°13.86 2°55.61 34.253179 0.835128 4.811955 0.128905
2003-09-22 13:09:04 51°13.79 2°55.67 34.663717 0.835337 4.813104 0.095195
2003-09-22 13:10:04 51°13.73 2°55.74 33.803242 0.835546 4.81418 0.095195
2003-09-22 13:11:04 51°13.69 2°55.84 34.530748 0.833246 4.799888 0.095195
2003-09-22 13:12:04 51°13.65 2°55.94 34.559655 0.836696 4.821073 0.095195
2003-09-22 13:13:04 51°13.62 2°56.03 33.502003 0.830424 4.782012 0.061486
2003-09-22 13:14:04 51°13.61 2°56.08 33.976968 0.836591 4.819848 0.128905
2003-09-22 13:15:04 51°13.6 2°56.11 34.909118 0.833351 4.798517 0.095195
2003-09-22 13:16:08 51°13.6 2°56.11 35.566097 0.825302 4.749156 0.095195
2003-09-22 13:17:08 51°13.6 2°56.11 34.056071 0.834396 4.805338 0.128905